sensor_id;sensor_type;location;lat;lon;timestamp;P1;durP1;ratioP1;P2;durP2;ratioP2
52320;SDS011;38261;54.090;13.382;2022-07-26T00:00:28;15.47;;;5.30;;
52320;SDS011;38261;54.090;13.382;2022-07-26T00:01:50;20.07;;;5.67;;
52320;SDS011;38261;54.090;13.382;2022-07-26T00:03:13;9.00;;;5.13;;
52320;SDS011;38261;54.090;13.382;2022-07-26T00:04:35;10.80;;;4.47;;
52320;SDS011;38261;54.090;13.382;2022-07-26T00:05:57;6.93;;;4.20;;
52320;SDS011;38261;54.090;13.382;2022-07-26T00:07:20;8.70;;;5.13;;
52320;SDS011;38261;54.090;13.382;2022-07-26T00:08:43;16.40;;;5.07;;
52320;SDS011;38261;54.090;13.382;2022-07-26T00:10:05;11.93;;;4.57;;
52320;SDS011;38261;54.090;13.382;2022-07-26T00:11:28;17.53;;;5.07;;
52320;SDS011;38261;54.090;13.382;2022-07-26T00:12:54;14.50;;;5.43;;
52320;SDS011;38261;54.090;13.382;2022-07-26T00:14:16;11.97;;;4.90;;
52320;SDS011;38261;54.090;13.382;2022-07-26T00:15:38;7.30;;;5.00;;
52320;SDS011;38261;54.090;13.382;2022-07-26T00:17:00;9.60;;;4.60;;
52320;SDS011;38261;54.090;13.382;2022-07-26T00:18:23;9.80;;;5.03;;
52320;SDS011;38261;54.090;13.382;2022-07-26T00:19:45;14.87;;;4.33;;
52320;SDS011;38261;54.090;13.382;2022-07-26T00:21:07;17.10;;;5.13;;
52320;SDS011;38261;54.090;13.382;2022-07-26T00:22:32;18.43;;;4.90;;
52320;SDS011;38261;54.090;13.382;2022-07-26T00:23:59;9.87;;;4.83;;
52320;SDS011;38261;54.090;13.382;2022-07-26T00:25:22;9.50;;;5.30;;
52320;SDS011;38261;54.090;13.382;2022-07-26T00:26:44;11.23;;;5.00;;
52320;SDS011;38261;54.090;13.382;2022-07-26T00:28:06;12.60;;;5.23;;
52320;SDS011;38261;54.090;13.382;2022-07-26T00:29:30;8.67;;;4.40;;
52320;SDS011;38261;54.090;13.382;2022-07-26T00:30:52;11.73;;;5.23;;
52320;SDS011;38261;54.090;13.382;2022-07-26T00:32:14;10.93;;;5.00;;
52320;SDS011;38261;54.090;13.382;2022-07-26T00:33:36;17.23;;;4.87;;
52320;SDS011;38261;54.090;13.382;2022-07-26T00:34:59;9.77;;;5.03;;
52320;SDS011;38261;54.090;13.382;2022-07-26T00:36:22;10.43;;;5.13;;
52320;SDS011;38261;54.090;13.382;2022-07-26T00:37:44;12.97;;;4.70;;
52320;SDS011;38261;54.090;13.382;2022-07-26T00:39:07;9.20;;;4.77;;
52320;SDS011;38261;54.090;13.382;2022-07-26T00:40:30;14.27;;;4.90;;
52320;SDS011;38261;54.090;13.382;2022-07-26T00:41:52;10.03;;;5.00;;
52320;SDS011;38261;54.090;13.382;2022-07-26T00:43:14;12.70;;;4.97;;
52320;SDS011;38261;54.090;13.382;2022-07-26T00:44:40;10.67;;;5.20;;
52320;SDS011;38261;54.090;13.382;2022-07-26T00:46:05;17.57;;;5.87;;
52320;SDS011;38261;54.090;13.382;2022-07-26T00:47:27;12.77;;;5.53;;
52320;SDS011;38261;54.090;13.382;2022-07-26T00:48:49;11.00;;;5.37;;
52320;SDS011;38261;54.090;13.382;2022-07-26T00:50:13;10.33;;;4.67;;
52320;SDS011;38261;54.090;13.382;2022-07-26T00:51:36;10.27;;;5.10;;
52320;SDS011;38261;54.090;13.382;2022-07-26T00:52:59;15.23;;;5.63;;
52320;SDS011;38261;54.090;13.382;2022-07-26T00:54:21;16.67;;;4.83;;
52320;SDS011;38261;54.090;13.382;2022-07-26T00:55:43;12.00;;;5.57;;
52320;SDS011;38261;54.090;13.382;2022-07-26T00:57:05;9.20;;;4.97;;
52320;SDS011;38261;54.090;13.382;2022-07-26T00:58:28;9.80;;;4.23;;
52320;SDS011;38261;54.090;13.382;2022-07-26T00:59:50;15.87;;;6.07;;
52320;SDS011;38261;54.090;13.382;2022-07-26T01:01:13;18.07;;;5.37;;
52320;SDS011;38261;54.090;13.382;2022-07-26T01:02:35;14.83;;;6.70;;
52320;SDS011;38261;54.090;13.382;2022-07-26T01:03:57;14.63;;;5.50;;
52320;SDS011;38261;54.090;13.382;2022-07-26T01:05:20;11.70;;;5.80;;
52320;SDS011;38261;54.090;13.382;2022-07-26T01:06:43;14.37;;;6.00;;
52320;SDS011;38261;54.090;13.382;2022-07-26T01:08:05;17.77;;;5.50;;
52320;SDS011;38261;54.090;13.382;2022-07-26T01:09:27;22.43;;;6.90;;
52320;SDS011;38261;54.090;13.382;2022-07-26T01:10:53;13.07;;;6.30;;
52320;SDS011;38261;54.090;13.382;2022-07-26T01:12:16;15.60;;;5.93;;
52320;SDS011;38261;54.090;13.382;2022-07-26T01:13:48;12.10;;;6.50;;
52320;SDS011;38261;54.090;13.382;2022-07-26T01:15:11;15.07;;;6.10;;
52320;SDS011;38261;54.090;13.382;2022-07-26T01:16:35;16.43;;;6.17;;
52320;SDS011;38261;54.090;13.382;2022-07-26T01:17:57;12.73;;;6.70;;
52320;SDS011;38261;54.090;13.382;2022-07-26T01:19:20;18.80;;;5.90;;
52320;SDS011;38261;54.090;13.382;2022-07-26T01:20:42;18.87;;;6.60;;
52320;SDS011;38261;54.090;13.382;2022-07-26T01:22:05;16.00;;;6.20;;
52320;SDS011;38261;54.090;13.382;2022-07-26T01:23:35;12.30;;;5.70;;
52320;SDS011;38261;54.090;13.382;2022-07-26T01:24:57;11.70;;;6.30;;
52320;SDS011;38261;54.090;13.382;2022-07-26T01:26:19;14.67;;;5.50;;
52320;SDS011;38261;54.090;13.382;2022-07-26T01:27:46;12.90;;;5.87;;
52320;SDS011;38261;54.090;13.382;2022-07-26T01:29:08;14.20;;;5.50;;
52320;SDS011;38261;54.090;13.382;2022-07-26T01:30:30;19.80;;;7.37;;
52320;SDS011;38261;54.090;13.382;2022-07-26T01:31:53;12.33;;;6.77;;
52320;SDS011;38261;54.090;13.382;2022-07-26T01:33:15;13.80;;;5.40;;
52320;SDS011;38261;54.090;13.382;2022-07-26T01:34:37;11.10;;;5.90;;
52320;SDS011;38261;54.090;13.382;2022-07-26T01:35:59;14.13;;;5.90;;
52320;SDS011;38261;54.090;13.382;2022-07-26T01:37:22;15.53;;;6.20;;
52320;SDS011;38261;54.090;13.382;2022-07-26T01:38:44;12.57;;;5.77;;
52320;SDS011;38261;54.090;13.382;2022-07-26T01:40:06;10.33;;;5.73;;
52320;SDS011;38261;54.090;13.382;2022-07-26T01:41:29;19.53;;;5.73;;
52320;SDS011;38261;54.090;13.382;2022-07-26T01:42:58;13.83;;;6.20;;
52320;SDS011;38261;54.090;13.382;2022-07-26T01:44:21;14.73;;;6.20;;
52320;SDS011;38261;54.090;13.382;2022-07-26T01:45:43;13.87;;;5.40;;
52320;SDS011;38261;54.090;13.382;2022-07-26T01:47:06;11.70;;;5.87;;
52320;SDS011;38261;54.090;13.382;2022-07-26T01:48:28;11.90;;;5.70;;
52320;SDS011;38261;54.090;13.382;2022-07-26T01:49:51;12.93;;;5.87;;
52320;SDS011;38261;54.090;13.382;2022-07-26T01:51:14;9.33;;;5.20;;
52320;SDS011;38261;54.090;13.382;2022-07-26T01:52:36;14.40;;;5.67;;
52320;SDS011;38261;54.090;13.382;2022-07-26T01:54:00;17.40;;;6.30;;
52320;SDS011;38261;54.090;13.382;2022-07-26T01:55:24;11.37;;;5.50;;
52320;SDS011;38261;54.090;13.382;2022-07-26T01:56:46;14.37;;;5.00;;
52320;SDS011;38261;54.090;13.382;2022-07-26T01:58:08;12.67;;;5.47;;
52320;SDS011;38261;54.090;13.382;2022-07-26T01:59:31;12.10;;;6.33;;
52320;SDS011;38261;54.090;13.382;2022-07-26T02:00:53;13.90;;;6.47;;
52320;SDS011;38261;54.090;13.382;2022-07-26T02:02:15;11.90;;;5.90;;
52320;SDS011;38261;54.090;13.382;2022-07-26T02:03:37;11.43;;;5.50;;
52320;SDS011;38261;54.090;13.382;2022-07-26T02:04:59;11.90;;;5.50;;
52320;SDS011;38261;54.090;13.382;2022-07-26T02:06:22;13.63;;;6.13;;
52320;SDS011;38261;54.090;13.382;2022-07-26T02:07:44;16.97;;;5.47;;
52320;SDS011;38261;54.090;13.382;2022-07-26T02:09:07;13.83;;;6.03;;
52320;SDS011;38261;54.090;13.382;2022-07-26T02:10:33;21.93;;;5.60;;
52320;SDS011;38261;54.090;13.382;2022-07-26T02:12:15;10.93;;;4.90;;
52320;SDS011;38261;54.090;13.382;2022-07-26T02:13:38;11.60;;;5.50;;
52320;SDS011;38261;54.090;13.382;2022-07-26T02:15:02;10.47;;;5.77;;
52320;SDS011;38261;54.090;13.382;2022-07-26T02:16:26;24.50;;;5.50;;
52320;SDS011;38261;54.090;13.382;2022-07-26T02:17:48;9.97;;;5.63;;
52320;SDS011;38261;54.090;13.382;2022-07-26T02:19:11;11.57;;;5.30;;
52320;SDS011;38261;54.090;13.382;2022-07-26T02:20:33;14.23;;;6.00;;
52320;SDS011;38261;54.090;13.382;2022-07-26T02:21:55;13.20;;;5.53;;
52320;SDS011;38261;54.090;13.382;2022-07-26T02:23:18;14.67;;;4.87;;
52320;SDS011;38261;54.090;13.382;2022-07-26T02:24:40;10.17;;;5.20;;
52320;SDS011;38261;54.090;13.382;2022-07-26T02:26:02;8.50;;;5.10;;
52320;SDS011;38261;54.090;13.382;2022-07-26T02:27:25;16.40;;;4.87;;
52320;SDS011;38261;54.090;13.382;2022-07-26T02:28:47;7.43;;;4.70;;
52320;SDS011;38261;54.090;13.382;2022-07-26T02:30:09;11.13;;;5.03;;
52320;SDS011;38261;54.090;13.382;2022-07-26T02:31:32;10.67;;;4.70;;
52320;SDS011;38261;54.090;13.382;2022-07-26T02:32:54;5.83;;;4.37;;
52320;SDS011;38261;54.090;13.382;2022-07-26T02:34:16;7.87;;;4.63;;
52320;SDS011;38261;54.090;13.382;2022-07-26T02:35:39;15.53;;;5.10;;
52320;SDS011;38261;54.090;13.382;2022-07-26T02:37:02;9.73;;;5.10;;
52320;SDS011;38261;54.090;13.382;2022-07-26T02:38:24;12.87;;;5.07;;
52320;SDS011;38261;54.090;13.382;2022-07-26T02:39:46;7.00;;;5.10;;
52320;SDS011;38261;54.090;13.382;2022-07-26T02:41:08;9.50;;;5.00;;
52320;SDS011;38261;54.090;13.382;2022-07-26T02:42:31;14.37;;;5.10;;
52320;SDS011;38261;54.090;13.382;2022-07-26T02:43:53;13.37;;;5.00;;
52320;SDS011;38261;54.090;13.382;2022-07-26T02:45:15;13.73;;;4.93;;
52320;SDS011;38261;54.090;13.382;2022-07-26T02:46:37;11.40;;;5.20;;
52320;SDS011;38261;54.090;13.382;2022-07-26T02:48:00;12.47;;;5.20;;
52320;SDS011;38261;54.090;13.382;2022-07-26T02:49:22;14.90;;;4.97;;
52320;SDS011;38261;54.090;13.382;2022-07-26T02:50:44;13.23;;;5.77;;
52320;SDS011;38261;54.090;13.382;2022-07-26T02:52:06;19.23;;;4.80;;
52320;SDS011;38261;54.090;13.382;2022-07-26T02:53:28;16.07;;;4.83;;
52320;SDS011;38261;54.090;13.382;2022-07-26T02:54:50;12.73;;;5.40;;
52320;SDS011;38261;54.090;13.382;2022-07-26T02:56:12;12.47;;;4.50;;
52320;SDS011;38261;54.090;13.382;2022-07-26T02:57:34;16.57;;;5.33;;
52320;SDS011;38261;54.090;13.382;2022-07-26T02:59:07;14.97;;;5.10;;
52320;SDS011;38261;54.090;13.382;2022-07-26T03:00:29;12.33;;;5.50;;
52320;SDS011;38261;54.090;13.382;2022-07-26T03:01:51;13.87;;;5.20;;
52320;SDS011;38261;54.090;13.382;2022-07-26T03:03:14;14.23;;;6.30;;
52320;SDS011;38261;54.090;13.382;2022-07-26T03:04:36;15.47;;;5.53;;
52320;SDS011;38261;54.090;13.382;2022-07-26T03:05:58;9.97;;;4.97;;
52320;SDS011;38261;54.090;13.382;2022-07-26T03:07:20;10.50;;;4.93;;
52320;SDS011;38261;54.090;13.382;2022-07-26T03:08:42;12.97;;;5.23;;
52320;SDS011;38261;54.090;13.382;2022-07-26T03:10:05;14.33;;;5.13;;
52320;SDS011;38261;54.090;13.382;2022-07-26T03:11:27;21.67;;;4.63;;
52320;SDS011;38261;54.090;13.382;2022-07-26T03:12:50;16.93;;;4.50;;
52320;SDS011;38261;54.090;13.382;2022-07-26T03:14:13;14.33;;;4.73;;
52320;SDS011;38261;54.090;13.382;2022-07-26T03:15:35;14.03;;;4.60;;
52320;SDS011;38261;54.090;13.382;2022-07-26T03:16:57;11.33;;;4.63;;
52320;SDS011;38261;54.090;13.382;2022-07-26T03:18:19;8.90;;;5.27;;
52320;SDS011;38261;54.090;13.382;2022-07-26T03:19:41;18.40;;;4.80;;
52320;SDS011;38261;54.090;13.382;2022-07-26T03:21:05;11.53;;;4.67;;
52320;SDS011;38261;54.090;13.382;2022-07-26T03:22:27;23.33;;;5.73;;
52320;SDS011;38261;54.090;13.382;2022-07-26T03:23:49;15.27;;;5.20;;
52320;SDS011;38261;54.090;13.382;2022-07-26T03:25:13;12.37;;;4.53;;
52320;SDS011;38261;54.090;13.382;2022-07-26T03:26:35;12.90;;;4.77;;
52320;SDS011;38261;54.090;13.382;2022-07-26T03:27:57;6.80;;;4.30;;
52320;SDS011;38261;54.090;13.382;2022-07-26T03:29:19;11.23;;;4.37;;
52320;SDS011;38261;54.090;13.382;2022-07-26T03:30:42;15.73;;;4.40;;
52320;SDS011;38261;54.090;13.382;2022-07-26T03:32:04;13.40;;;4.70;;
52320;SDS011;38261;54.090;13.382;2022-07-26T03:33:27;13.53;;;4.60;;
52320;SDS011;38261;54.090;13.382;2022-07-26T03:34:49;13.53;;;4.90;;
52320;SDS011;38261;54.090;13.382;2022-07-26T03:36:11;19.67;;;4.73;;
52320;SDS011;38261;54.090;13.382;2022-07-26T03:37:36;15.30;;;4.37;;
52320;SDS011;38261;54.090;13.382;2022-07-26T03:39:07;7.83;;;3.87;;
52320;SDS011;38261;54.090;13.382;2022-07-26T03:40:29;13.33;;;4.97;;
52320;SDS011;38261;54.090;13.382;2022-07-26T03:41:51;8.97;;;4.10;;
52320;SDS011;38261;54.090;13.382;2022-07-26T03:43:13;13.37;;;4.80;;
52320;SDS011;38261;54.090;13.382;2022-07-26T03:44:35;10.60;;;4.87;;
52320;SDS011;38261;54.090;13.382;2022-07-26T03:45:58;16.30;;;4.47;;
52320;SDS011;38261;54.090;13.382;2022-07-26T03:47:20;14.10;;;4.20;;
52320;SDS011;38261;54.090;13.382;2022-07-26T03:48:42;15.07;;;4.07;;
52320;SDS011;38261;54.090;13.382;2022-07-26T03:50:04;14.60;;;4.33;;
52320;SDS011;38261;54.090;13.382;2022-07-26T03:51:27;11.27;;;4.10;;
52320;SDS011;38261;54.090;13.382;2022-07-26T03:52:49;15.50;;;4.23;;
52320;SDS011;38261;54.090;13.382;2022-07-26T03:54:12;12.83;;;3.73;;
52320;SDS011;38261;54.090;13.382;2022-07-26T03:55:34;11.97;;;4.50;;
52320;SDS011;38261;54.090;13.382;2022-07-26T03:57:15;14.47;;;3.80;;
52320;SDS011;38261;54.090;13.382;2022-07-26T03:58:37;9.13;;;3.77;;
52320;SDS011;38261;54.090;13.382;2022-07-26T03:59:59;6.57;;;2.83;;
52320;SDS011;38261;54.090;13.382;2022-07-26T04:01:21;10.07;;;3.27;;
52320;SDS011;38261;54.090;13.382;2022-07-26T04:02:43;8.70;;;2.80;;
52320;SDS011;38261;54.090;13.382;2022-07-26T04:04:07;9.13;;;3.10;;
52320;SDS011;38261;54.090;13.382;2022-07-26T04:05:31;7.50;;;2.97;;
52320;SDS011;38261;54.090;13.382;2022-07-26T04:06:56;12.63;;;3.13;;
52320;SDS011;38261;54.090;13.382;2022-07-26T04:08:23;11.03;;;3.33;;
52320;SDS011;38261;54.090;13.382;2022-07-26T04:09:46;11.00;;;2.90;;
52320;SDS011;38261;54.090;13.382;2022-07-26T04:11:08;16.47;;;2.77;;
52320;SDS011;38261;54.090;13.382;2022-07-26T04:12:30;13.27;;;3.20;;
52320;SDS011;38261;54.090;13.382;2022-07-26T04:13:52;10.33;;;3.10;;
52320;SDS011;38261;54.090;13.382;2022-07-26T04:15:15;9.20;;;3.50;;
52320;SDS011;38261;54.090;13.382;2022-07-26T04:16:39;8.50;;;3.30;;
52320;SDS011;38261;54.090;13.382;2022-07-26T04:18:04;12.93;;;3.13;;
52320;SDS011;38261;54.090;13.382;2022-07-26T04:19:26;6.60;;;3.43;;
52320;SDS011;38261;54.090;13.382;2022-07-26T04:20:48;9.63;;;2.50;;
52320;SDS011;38261;54.090;13.382;2022-07-26T04:22:11;10.17;;;2.43;;
52320;SDS011;38261;54.090;13.382;2022-07-26T04:23:33;17.30;;;3.53;;
52320;SDS011;38261;54.090;13.382;2022-07-26T04:24:55;6.13;;;2.90;;
52320;SDS011;38261;54.090;13.382;2022-07-26T04:26:18;6.63;;;3.40;;
52320;SDS011;38261;54.090;13.382;2022-07-26T04:27:41;10.40;;;3.07;;
52320;SDS011;38261;54.090;13.382;2022-07-26T04:29:04;6.27;;;2.13;;
52320;SDS011;38261;54.090;13.382;2022-07-26T04:30:28;10.07;;;2.90;;
52320;SDS011;38261;54.090;13.382;2022-07-26T04:31:50;10.90;;;2.70;;
52320;SDS011;38261;54.090;13.382;2022-07-26T04:33:12;8.50;;;3.07;;
52320;SDS011;38261;54.090;13.382;2022-07-26T04:34:34;13.13;;;3.33;;
52320;SDS011;38261;54.090;13.382;2022-07-26T04:35:56;9.43;;;2.83;;
52320;SDS011;38261;54.090;13.382;2022-07-26T04:37:19;17.13;;;2.77;;
52320;SDS011;38261;54.090;13.382;2022-07-26T04:38:42;10.20;;;3.17;;
52320;SDS011;38261;54.090;13.382;2022-07-26T04:40:04;16.23;;;3.23;;
52320;SDS011;38261;54.090;13.382;2022-07-26T04:41:27;10.30;;;2.63;;
52320;SDS011;38261;54.090;13.382;2022-07-26T04:42:49;12.87;;;3.13;;
52320;SDS011;38261;54.090;13.382;2022-07-26T04:44:12;13.93;;;3.00;;
52320;SDS011;38261;54.090;13.382;2022-07-26T04:45:34;8.67;;;2.67;;
52320;SDS011;38261;54.090;13.382;2022-07-26T04:46:56;11.03;;;2.80;;
52320;SDS011;38261;54.090;13.382;2022-07-26T04:48:18;13.33;;;3.00;;
52320;SDS011;38261;54.090;13.382;2022-07-26T04:49:41;9.13;;;2.53;;
52320;SDS011;38261;54.090;13.382;2022-07-26T04:51:03;10.13;;;3.20;;
52320;SDS011;38261;54.090;13.382;2022-07-26T04:52:25;18.53;;;3.37;;
52320;SDS011;38261;54.090;13.382;2022-07-26T04:53:47;13.93;;;3.63;;
52320;SDS011;38261;54.090;13.382;2022-07-26T04:55:09;10.70;;;3.03;;
52320;SDS011;38261;54.090;13.382;2022-07-26T04:56:31;8.53;;;2.47;;
52320;SDS011;38261;54.090;13.382;2022-07-26T04:57:54;6.67;;;2.50;;
52320;SDS011;38261;54.090;13.382;2022-07-26T04:59:16;11.30;;;2.70;;
52320;SDS011;38261;54.090;13.382;2022-07-26T05:00:42;13.23;;;2.93;;
52320;SDS011;38261;54.090;13.382;2022-07-26T05:02:24;5.97;;;2.57;;
52320;SDS011;38261;54.090;13.382;2022-07-26T05:03:47;7.97;;;2.40;;
52320;SDS011;38261;54.090;13.382;2022-07-26T05:05:09;14.00;;;2.77;;
52320;SDS011;38261;54.090;13.382;2022-07-26T05:06:31;8.93;;;2.60;;
52320;SDS011;38261;54.090;13.382;2022-07-26T05:07:54;6.07;;;2.37;;
52320;SDS011;38261;54.090;13.382;2022-07-26T05:09:17;11.73;;;2.87;;
52320;SDS011;38261;54.090;13.382;2022-07-26T05:10:39;11.10;;;2.73;;
52320;SDS011;38261;54.090;13.382;2022-07-26T05:12:05;10.50;;;2.77;;
52320;SDS011;38261;54.090;13.382;2022-07-26T05:13:28;7.63;;;2.50;;
52320;SDS011;38261;54.090;13.382;2022-07-26T05:14:51;14.23;;;3.10;;
52320;SDS011;38261;54.090;13.382;2022-07-26T05:16:14;11.30;;;3.70;;
52320;SDS011;38261;54.090;13.382;2022-07-26T05:17:37;10.60;;;2.70;;
52320;SDS011;38261;54.090;13.382;2022-07-26T05:19:03;11.20;;;3.13;;
52320;SDS011;38261;54.090;13.382;2022-07-26T05:20:25;20.17;;;3.60;;
52320;SDS011;38261;54.090;13.382;2022-07-26T05:21:47;9.73;;;2.70;;
52320;SDS011;38261;54.090;13.382;2022-07-26T05:23:09;9.60;;;3.40;;
52320;SDS011;38261;54.090;13.382;2022-07-26T05:24:32;12.37;;;3.17;;
52320;SDS011;38261;54.090;13.382;2022-07-26T05:25:54;15.83;;;3.70;;
52320;SDS011;38261;54.090;13.382;2022-07-26T05:27:16;15.03;;;4.47;;
52320;SDS011;38261;54.090;13.382;2022-07-26T05:28:38;7.00;;;2.37;;
52320;SDS011;38261;54.090;13.382;2022-07-26T05:30:01;15.03;;;2.90;;
52320;SDS011;38261;54.090;13.382;2022-07-26T05:31:24;14.67;;;3.37;;
52320;SDS011;38261;54.090;13.382;2022-07-26T05:32:46;4.73;;;3.20;;
52320;SDS011;38261;54.090;13.382;2022-07-26T05:34:08;11.70;;;3.37;;
52320;SDS011;38261;54.090;13.382;2022-07-26T05:35:31;9.40;;;3.13;;
52320;SDS011;38261;54.090;13.382;2022-07-26T05:36:53;11.00;;;3.10;;
52320;SDS011;38261;54.090;13.382;2022-07-26T05:38:15;12.30;;;3.23;;
52320;SDS011;38261;54.090;13.382;2022-07-26T05:39:37;7.27;;;3.97;;
52320;SDS011;38261;54.090;13.382;2022-07-26T05:40:59;9.73;;;2.67;;
52320;SDS011;38261;54.090;13.382;2022-07-26T05:42:21;11.00;;;4.07;;
52320;SDS011;38261;54.090;13.382;2022-07-26T05:43:44;11.47;;;3.20;;
52320;SDS011;38261;54.090;13.382;2022-07-26T05:45:06;11.03;;;3.33;;
52320;SDS011;38261;54.090;13.382;2022-07-26T05:46:29;12.43;;;3.30;;
52320;SDS011;38261;54.090;13.382;2022-07-26T05:47:51;7.03;;;3.50;;
52320;SDS011;38261;54.090;13.382;2022-07-26T05:49:14;12.60;;;3.60;;
52320;SDS011;38261;54.090;13.382;2022-07-26T05:50:36;10.77;;;3.57;;
52320;SDS011;38261;54.090;13.382;2022-07-26T05:51:58;8.30;;;2.87;;
52320;SDS011;38261;54.090;13.382;2022-07-26T05:53:22;14.67;;;3.00;;
52320;SDS011;38261;54.090;13.382;2022-07-26T05:54:44;9.60;;;3.67;;
52320;SDS011;38261;54.090;13.382;2022-07-26T05:56:06;6.93;;;2.80;;
52320;SDS011;38261;54.090;13.382;2022-07-26T05:57:28;6.20;;;2.80;;
52320;SDS011;38261;54.090;13.382;2022-07-26T05:58:50;7.93;;;2.80;;
52320;SDS011;38261;54.090;13.382;2022-07-26T06:00:13;12.10;;;3.47;;
52320;SDS011;38261;54.090;13.382;2022-07-26T06:01:35;6.50;;;3.03;;
52320;SDS011;38261;54.090;13.382;2022-07-26T06:02:57;10.63;;;3.20;;
52320;SDS011;38261;54.090;13.382;2022-07-26T06:04:19;7.77;;;3.10;;
52320;SDS011;38261;54.090;13.382;2022-07-26T06:05:45;7.40;;;2.90;;
52320;SDS011;38261;54.090;13.382;2022-07-26T06:07:08;8.63;;;3.60;;
52320;SDS011;38261;54.090;13.382;2022-07-26T06:08:30;9.47;;;2.73;;
52320;SDS011;38261;54.090;13.382;2022-07-26T06:09:52;9.83;;;2.90;;
52320;SDS011;38261;54.090;13.382;2022-07-26T06:11:14;13.13;;;2.97;;
52320;SDS011;38261;54.090;13.382;2022-07-26T06:12:36;21.57;;;3.57;;
52320;SDS011;38261;54.090;13.382;2022-07-26T06:13:58;6.00;;;2.83;;
52320;SDS011;38261;54.090;13.382;2022-07-26T06:15:21;10.90;;;3.00;;
52320;SDS011;38261;54.090;13.382;2022-07-26T06:16:43;13.53;;;4.10;;
52320;SDS011;38261;54.090;13.382;2022-07-26T06:18:05;10.47;;;2.77;;
52320;SDS011;38261;54.090;13.382;2022-07-26T06:19:28;8.57;;;2.83;;
52320;SDS011;38261;54.090;13.382;2022-07-26T06:20:50;10.90;;;3.33;;
52320;SDS011;38261;54.090;13.382;2022-07-26T06:22:13;11.07;;;3.23;;
52320;SDS011;38261;54.090;13.382;2022-07-26T06:23:35;7.10;;;2.70;;
52320;SDS011;38261;54.090;13.382;2022-07-26T06:24:57;8.37;;;2.60;;
52320;SDS011;38261;54.090;13.382;2022-07-26T06:26:19;11.67;;;3.43;;
52320;SDS011;38261;54.090;13.382;2022-07-26T06:27:44;7.67;;;3.23;;
52320;SDS011;38261;54.090;13.382;2022-07-26T06:29:06;7.80;;;3.17;;
52320;SDS011;38261;54.090;13.382;2022-07-26T06:30:28;10.17;;;3.37;;
52320;SDS011;38261;54.090;13.382;2022-07-26T06:31:50;9.00;;;3.23;;
52320;SDS011;38261;54.090;13.382;2022-07-26T06:33:13;8.20;;;2.90;;
52320;SDS011;38261;54.090;13.382;2022-07-26T06:34:35;6.87;;;2.37;;
52320;SDS011;38261;54.090;13.382;2022-07-26T06:35:57;8.63;;;3.70;;
52320;SDS011;38261;54.090;13.382;2022-07-26T06:37:19;9.73;;;2.67;;
52320;SDS011;38261;54.090;13.382;2022-07-26T06:38:41;14.27;;;2.80;;
52320;SDS011;38261;54.090;13.382;2022-07-26T06:40:04;7.70;;;2.87;;
52320;SDS011;38261;54.090;13.382;2022-07-26T06:41:27;15.13;;;3.40;;
52320;SDS011;38261;54.090;13.382;2022-07-26T06:42:49;10.23;;;3.20;;
52320;SDS011;38261;54.090;13.382;2022-07-26T06:44:11;15.60;;;3.37;;
52320;SDS011;38261;54.090;13.382;2022-07-26T06:45:33;13.67;;;3.43;;
52320;SDS011;38261;54.090;13.382;2022-07-26T06:46:55;6.20;;;3.00;;
52320;SDS011;38261;54.090;13.382;2022-07-26T06:48:17;9.67;;;3.13;;
52320;SDS011;38261;54.090;13.382;2022-07-26T06:49:40;9.57;;;3.20;;
52320;SDS011;38261;54.090;13.382;2022-07-26T06:51:02;16.30;;;3.50;;
52320;SDS011;38261;54.090;13.382;2022-07-26T06:52:25;15.90;;;3.47;;
52320;SDS011;38261;54.090;13.382;2022-07-26T06:53:47;8.23;;;2.90;;
52320;SDS011;38261;54.090;13.382;2022-07-26T06:55:10;12.00;;;2.80;;
52320;SDS011;38261;54.090;13.382;2022-07-26T06:56:33;7.50;;;2.80;;
52320;SDS011;38261;54.090;13.382;2022-07-26T06:57:55;7.70;;;2.77;;
52320;SDS011;38261;54.090;13.382;2022-07-26T06:59:17;7.40;;;2.70;;
52320;SDS011;38261;54.090;13.382;2022-07-26T07:00:39;7.97;;;2.90;;
52320;SDS011;38261;54.090;13.382;2022-07-26T07:02:02;8.83;;;2.90;;
52320;SDS011;38261;54.090;13.382;2022-07-26T07:03:24;12.40;;;3.90;;
52320;SDS011;38261;54.090;13.382;2022-07-26T07:04:47;7.97;;;3.27;;
52320;SDS011;38261;54.090;13.382;2022-07-26T07:06:09;9.73;;;3.17;;
52320;SDS011;38261;54.090;13.382;2022-07-26T07:07:31;11.90;;;3.40;;
52320;SDS011;38261;54.090;13.382;2022-07-26T07:08:55;12.73;;;2.83;;
52320;SDS011;38261;54.090;13.382;2022-07-26T07:10:17;5.80;;;3.13;;
52320;SDS011;38261;54.090;13.382;2022-07-26T07:11:44;11.27;;;2.90;;
52320;SDS011;38261;54.090;13.382;2022-07-26T07:13:08;6.90;;;3.30;;
52320;SDS011;38261;54.090;13.382;2022-07-26T07:14:31;4.70;;;2.70;;
52320;SDS011;38261;54.090;13.382;2022-07-26T07:15:54;10.30;;;3.20;;
52320;SDS011;38261;54.090;13.382;2022-07-26T07:17:19;9.33;;;3.10;;
52320;SDS011;38261;54.090;13.382;2022-07-26T07:18:41;4.87;;;2.70;;
52320;SDS011;38261;54.090;13.382;2022-07-26T07:20:03;7.60;;;2.93;;
52320;SDS011;38261;54.090;13.382;2022-07-26T07:21:26;10.80;;;3.33;;
52320;SDS011;38261;54.090;13.382;2022-07-26T07:22:48;8.00;;;2.80;;
52320;SDS011;38261;54.090;13.382;2022-07-26T07:24:10;5.20;;;2.80;;
52320;SDS011;38261;54.090;13.382;2022-07-26T07:25:33;6.97;;;2.87;;
52320;SDS011;38261;54.090;13.382;2022-07-26T07:26:55;10.00;;;3.00;;
52320;SDS011;38261;54.090;13.382;2022-07-26T07:28:17;6.47;;;3.27;;
52320;SDS011;38261;54.090;13.382;2022-07-26T07:29:40;7.60;;;3.13;;
52320;SDS011;38261;54.090;13.382;2022-07-26T07:31:04;6.47;;;2.70;;
52320;SDS011;38261;54.090;13.382;2022-07-26T07:32:27;6.07;;;2.83;;
52320;SDS011;38261;54.090;13.382;2022-07-26T07:33:49;7.33;;;2.50;;
52320;SDS011;38261;54.090;13.382;2022-07-26T07:35:14;16.07;;;3.17;;
52320;SDS011;38261;54.090;13.382;2022-07-26T07:36:39;5.60;;;2.77;;
52320;SDS011;38261;54.090;13.382;2022-07-26T07:38:02;12.00;;;2.77;;
52320;SDS011;38261;54.090;13.382;2022-07-26T07:39:24;7.53;;;2.70;;
52320;SDS011;38261;54.090;13.382;2022-07-26T07:40:55;7.73;;;3.23;;
52320;SDS011;38261;54.090;13.382;2022-07-26T07:42:17;13.87;;;3.20;;
52320;SDS011;38261;54.090;13.382;2022-07-26T07:43:40;7.17;;;2.93;;
52320;SDS011;38261;54.090;13.382;2022-07-26T07:45:02;4.23;;;2.60;;
52320;SDS011;38261;54.090;13.382;2022-07-26T07:46:26;7.60;;;3.07;;
52320;SDS011;38261;54.090;13.382;2022-07-26T07:47:48;5.50;;;3.07;;
52320;SDS011;38261;54.090;13.382;2022-07-26T07:49:10;7.50;;;2.77;;
52320;SDS011;38261;54.090;13.382;2022-07-26T07:50:33;7.83;;;2.90;;
52320;SDS011;38261;54.090;13.382;2022-07-26T07:51:55;12.00;;;2.57;;
52320;SDS011;38261;54.090;13.382;2022-07-26T07:53:17;5.77;;;2.53;;
52320;SDS011;38261;54.090;13.382;2022-07-26T07:54:40;7.50;;;2.30;;
52320;SDS011;38261;54.090;13.382;2022-07-26T07:56:02;6.50;;;2.53;;
52320;SDS011;38261;54.090;13.382;2022-07-26T07:57:26;5.07;;;2.83;;
52320;SDS011;38261;54.090;13.382;2022-07-26T07:58:50;6.97;;;3.00;;
52320;SDS011;38261;54.090;13.382;2022-07-26T08:00:13;3.60;;;2.10;;
52320;SDS011;38261;54.090;13.382;2022-07-26T08:01:38;5.77;;;2.23;;
52320;SDS011;38261;54.090;13.382;2022-07-26T08:03:01;6.30;;;2.13;;
52320;SDS011;38261;54.090;13.382;2022-07-26T08:04:24;10.40;;;2.27;;
52320;SDS011;38261;54.090;13.382;2022-07-26T08:05:46;6.53;;;2.70;;
52320;SDS011;38261;54.090;13.382;2022-07-26T08:07:10;5.03;;;2.20;;